Time;durP1;ratioP1;P1;durP2;ratioP2;P2;SDS_P1;SDS_P2;PMS_P1;PMS_P2;Temp;Humidity;BMP_temperature;BMP_pressure;BME280_temperature;BME280_humidity;BME280_pressure;Samples;Min_cycle;Max_cycle;Signal;HPM_P1;HPM_P2
2023/07/26 00:01:02;;;;;;;5.60;2.83;;;13.80;1.00;;;;;;5032746;28;20602;-73
2023/07/26 00:03:27;;;;;;;3.90;3.00;;;13.70;1.00;;;;;;5034143;28;20164;-68
2023/07/26 00:05:53;;;;;;;4.90;2.90;;;13.70;1.00;;;;;;5033264;28;20167;-75
2023/07/26 00:08:19;;;;;;;4.73;3.20;;;13.80;1.00;;;;;;5033491;28;20551;-68
2023/07/26 00:10:47;;;;;;;4.90;2.70;;;13.80;1.00;;;;;;5032785;28;20639;-76
2023/07/26 00:13:15;;;;;;;3.10;2.80;;;13.80;1.00;;;;;;5033068;28;20438;-72
2023/07/26 00:15:41;;;;;;;3.67;2.83;;;13.80;1.00;;;;;;5032029;28;20438;-69
2023/07/26 00:18:07;;;;;;;8.10;3.07;;;13.80;1.00;;;;;;5033253;28;20485;-74
2023/07/26 00:20:33;;;;;;;3.70;2.33;;;13.80;1.00;;;;;;5033689;28;20290;-69
2023/07/26 00:22:58;;;;;;;4.50;3.30;;;13.80;1.00;;;;;;5033755;28;20449;-78
2023/07/26 00:25:25;;;;;;;12.30;3.53;;;13.80;1.00;;;;;;5031837;28;20175;-73
2023/07/26 00:27:50;;;;;;;2.97;2.60;;;13.70;1.00;;;;;;5032278;28;20191;-69
2023/07/26 00:30:16;;;;;;;2.63;2.47;;;13.70;1.00;;;;;;5032733;28;20398;-74
2023/07/26 00:32:41;;;;;;;8.80;3.03;;;13.70;1.00;;;;;;5033482;28;20175;-76
2023/07/26 00:35:07;;;;;;;4.30;2.97;;;13.70;1.00;;;;;;5032410;28;20176;-77
2023/07/26 00:37:33;;;;;;;6.80;3.00;;;13.80;1.00;;;;;;5020005;28;20665;-73
2023/07/26 00:39:59;;;;;;;4.67;2.50;;;13.80;1.00;;;;;;5017344;28;20179;-76
2023/07/26 00:42:24;;;;;;;3.33;2.60;;;13.80;1.00;;;;;;5014467;28;20214;-69
2023/07/26 00:44:50;;;;;;;9.60;4.03;;;13.80;1.00;;;;;;5013258;28;20268;-69
2023/07/26 00:47:17;;;;;;;3.70;2.67;;;13.80;1.00;;;;;;5012608;28;20192;-75
2023/07/26 00:49:43;;;;;;;4.40;2.80;;;13.80;1.00;;;;;;5012629;28;20545;-70
2023/07/26 00:52:11;;;;;;;5.80;2.43;;;13.90;1.00;;;;;;5023292;28;20821;-78
2023/07/26 00:54:37;;;;;;;5.43;2.93;;;13.90;1.00;;;;;;5033111;28;20410;-72
2023/07/26 00:57:04;;;;;;;3.43;2.60;;;13.80;1.00;;;;;;5032153;28;20421;-78
2023/07/26 00:59:30;;;;;;;9.80;3.73;;;13.80;1.00;;;;;;5033197;28;20398;-76
2023/07/26 01:01:56;;;;;;;5.00;2.80;;;13.80;1.00;;;;;;5032894;28;20968;-78
2023/07/26 01:04:21;;;;;;;3.33;2.60;;;13.80;1.00;;;;;;5033089;28;20171;-76
2023/07/26 01:07:20;;;;;;;5.53;3.30;;;13.70;1.00;;;;;;5020663;28;20619;-72
2023/07/26 01:09:54;;;;;;;4.13;2.70;;;13.70;1.00;;;;;;5016574;28;20586;-71
2023/07/26 01:12:26;;;;;;;4.00;2.83;;;13.70;1.00;;;;;;5032703;28;20441;-75
2023/07/26 01:14:53;;;;;;;4.37;2.63;;;13.70;1.00;;;;;;5031771;28;20417;-70
2023/07/26 01:17:19;;;;;;;4.80;3.17;;;13.70;1.00;;;;;;5032205;28;20422;-77
2023/07/26 01:19:45;;;;;;;5.87;2.87;;;13.70;1.00;;;;;;5032316;28;20774;-78
2023/07/26 01:22:10;;;;;;;3.00;2.27;;;13.70;1.00;;;;;;5032576;28;20702;-77
2023/07/26 01:24:36;;;;;;;3.20;2.70;;;13.60;1.00;;;;;;5024137;28;20277;-71
2023/07/26 01:27:02;;;;;;;4.50;3.63;;;13.70;1.00;;;;;;5012212;28;20222;-70
2023/07/26 01:29:28;;;;;;;6.60;3.53;;;13.70;1.00;;;;;;5027443;28;20256;-75
2023/07/26 01:31:54;;;;;;;3.27;2.67;;;13.70;1.00;;;;;;5032688;28;20446;-72
2023/07/26 01:34:20;;;;;;;3.33;2.50;;;13.60;1.00;;;;;;5032861;28;20198;-77
2023/07/26 01:36:46;;;;;;;3.33;2.93;;;13.60;1.00;;;;;;5030948;28;20602;-76
2023/07/26 01:39:12;;;;;;;5.03;2.97;;;13.50;1.00;;;;;;5032612;28;20489;-78
2023/07/26 01:41:39;;;;;;;3.40;3.07;;;13.50;1.00;;;;;;5032117;28;20537;-77
2023/07/26 01:44:05;;;;;;;5.87;3.40;;;13.50;1.00;;;;;;5036616;28;20417;-69
2023/07/26 01:46:31;;;;;;;4.60;2.77;;;13.50;1.00;;;;;;5035498;28;20417;-71
2023/07/26 01:48:56;;;;;;;6.60;3.37;;;13.50;1.00;;;;;;5035608;28;20176;-78
2023/07/26 01:51:22;;;;;;;3.10;2.57;;;13.50;1.00;;;;;;5036077;28;20267;-72
2023/07/26 01:53:48;;;;;;;4.50;2.87;;;13.50;1.00;;;;;;5036433;28;20524;-69
2023/07/26 01:56:13;;;;;;;3.00;2.80;;;13.50;1.00;;;;;;5034087;28;20183;-72
2023/07/26 01:58:39;;;;;;;8.70;3.20;;;13.40;1.00;;;;;;5019570;28;20192;-69
2023/07/26 02:01:04;;;;;;;11.13;3.17;;;13.40;1.00;;;;;;5016796;28;20204;-73
2023/07/26 02:03:30;;;;;;;3.30;2.80;;;13.40;1.00;;;;;;5014836;28;20226;-77
2023/07/26 02:05:56;;;;;;;3.83;2.97;;;13.40;1.00;;;;;;5027927;28;20648;-76
2023/07/26 02:08:22;;;;;;;5.63;3.03;;;13.30;1.00;;;;;;5035976;28;20199;-70
2023/07/26 02:10:47;;;;;;;6.83;3.23;;;13.30;1.00;;;;;;5036203;28;20172;-70
2023/07/26 02:13:13;;;;;;;2.97;2.77;;;13.30;1.00;;;;;;5035062;28;20160;-70
2023/07/26 02:15:39;;;;;;;5.50;2.60;;;13.30;1.00;;;;;;5034952;28;20532;-73
2023/07/26 02:18:05;;;;;;;5.10;2.67;;;13.30;1.00;;;;;;5036057;28;20191;-70
2023/07/26 02:20:32;;;;;;;3.00;2.80;;;13.30;1.00;;;;;;5034253;28;20853;-73
2023/07/26 02:22:58;;;;;;;5.43;3.47;;;13.20;1.00;;;;;;5035523;28;20429;-78
2023/07/26 02:25:23;;;;;;;6.33;3.10;;;13.20;1.00;;;;;;5035104;28;20430;-76
2023/07/26 02:27:49;;;;;;;4.00;3.00;;;13.10;1.00;;;;;;5034903;28;20191;-69
2023/07/26 02:30:15;;;;;;;4.10;3.17;;;13.10;1.00;;;;;;5034901;28;20262;-71
2023/07/26 02:32:41;;;;;;;4.20;3.10;;;13.10;1.00;;;;;;5035619;28;20639;-78
2023/07/26 02:35:07;;;;;;;4.17;3.17;;;13.10;1.00;;;;;;5033206;28;20521;-77
2023/07/26 02:37:32;;;;;;;4.70;2.80;;;13.00;1.00;;;;;;5035650;28;20195;-69
2023/07/26 02:39:58;;;;;;;8.40;3.70;;;12.90;1.00;;;;;;5035317;28;20418;-76
2023/07/26 02:42:25;;;;;;;5.30;3.60;;;12.90;1.00;;;;;;5035278;28;20202;-77
2023/07/26 02:44:53;;;;;;;3.50;3.10;;;12.80;1.00;;;;;;5035119;28;20672;-76
2023/07/26 02:47:18;;;;;;;3.30;2.97;;;12.90;1.00;;;;;;5033956;28;20517;-69
2023/07/26 02:49:44;;;;;;;7.47;3.27;;;12.90;1.00;;;;;;5034325;28;20500;-70
2023/07/26 02:52:11;;;;;;;2.83;2.57;;;12.80;1.00;;;;;;5033902;28;20250;-75
2023/07/26 02:54:37;;;;;;;6.30;3.00;;;12.80;1.00;;;;;;5034054;28;20418;-72
2023/07/26 02:57:03;;;;;;;3.90;2.97;;;12.80;1.00;;;;;;5034211;28;20199;-77
2023/07/26 02:59:29;;;;;;;3.30;3.00;;;12.80;1.00;;;;;;5035312;28;20263;-69
2023/07/26 03:01:54;;;;;;;6.37;2.97;;;12.80;1.00;;;;;;5034031;28;20249;-74
2023/07/26 03:04:20;;;;;;;9.33;3.10;;;12.80;1.00;;;;;;5035279;28;20683;-71
2023/07/26 03:06:46;;;;;;;3.73;3.30;;;12.80;1.00;;;;;;5034288;28;20575;-76
2023/07/26 03:09:12;;;;;;;5.40;3.40;;;12.70;1.00;;;;;;5035029;28;20583;-69
2023/07/26 03:11:37;;;;;;;6.97;3.80;;;12.70;1.00;;;;;;5034531;28;20179;-77
2023/07/26 03:14:03;;;;;;;6.30;3.37;;;12.70;1.00;;;;;;5034956;28;20627;-76
2023/07/26 03:16:29;;;;;;;3.70;2.97;;;12.70;1.00;;;;;;5033181;28;20760;-69
2023/07/26 03:18:54;;;;;;;3.23;3.03;;;12.80;1.00;;;;;;5034864;28;20163;-76
2023/07/26 03:21:20;;;;;;;3.73;3.43;;;12.80;1.00;;;;;;5034686;28;20233;-78
2023/07/26 03:23:46;;;;;;;3.30;2.97;;;12.80;1.00;;;;;;5033982;28;20506;-68
2023/07/26 03:26:12;;;;;;;3.00;2.80;;;12.80;1.00;;;;;;5033978;28;20243;-75
2023/07/26 03:28:38;;;;;;;4.67;4.17;;;12.80;1.00;;;;;;5034187;28;20187;-76
2023/07/26 03:31:04;;;;;;;3.97;3.63;;;12.80;1.00;;;;;;5022882;28;20493;-68
2023/07/26 03:33:30;;;;;;;6.37;3.77;;;12.80;1.00;;;;;;5014873;28;20812;-77
2023/07/26 03:35:55;;;;;;;4.87;3.47;;;12.80;1.00;;;;;;5019401;28;20179;-69
2023/07/26 03:38:21;;;;;;;5.10;3.10;;;12.80;1.00;;;;;;5034353;28;20195;-70
2023/07/26 03:40:47;;;;;;;8.33;3.50;;;12.80;1.00;;;;;;5033006;28;20207;-72
2023/07/26 03:43:13;;;;;;;8.30;3.63;;;12.80;1.00;;;;;;5033156;28;20298;-75
2023/07/26 03:45:38;;;;;;;4.27;3.57;;;12.80;1.00;;;;;;5033678;28;20179;-69
2023/07/26 03:48:04;;;;;;;14.07;3.77;;;12.80;1.00;;;;;;5033880;28;20194;-69
2023/07/26 03:50:31;;;;;;;6.80;4.33;;;12.80;1.00;;;;;;5023279;28;20196;-76
2023/07/26 03:52:57;;;;;;;7.37;4.50;;;12.80;1.00;;;;;;5014430;28;20466;-78
2023/07/26 03:55:23;;;;;;;7.13;3.73;;;12.90;1.00;;;;;;5013636;28;21019;-78
2023/07/26 03:57:48;;;;;;;4.50;3.20;;;12.90;1.00;;;;;;5012693;28;20193;-77
2023/07/26 04:00:14;;;;;;;3.20;2.90;;;12.90;1.00;;;;;;5013281;28;20250;-77
2023/07/26 04:02:40;;;;;;;3.27;2.97;;;13.00;1.00;;;;;;5014231;28;20200;-69
2023/07/26 04:05:06;;;;;;;5.30;3.60;;;13.00;1.00;;;;;;5013003;28;20279;-73
2023/07/26 04:07:34;;;;;;;6.80;3.70;;;13.00;1.00;;;;;;5013895;28;20192;-76
2023/07/26 04:10:00;;;;;;;8.37;3.73;;;13.10;1.00;;;;;;5014330;28;20172;-76
2023/07/26 04:12:25;;;;;;;5.40;4.30;;;13.00;1.00;;;;;;5014026;28;20542;-69
2023/07/26 04:14:51;;;;;;;3.67;3.37;;;13.00;1.00;;;;;;5030616;28;20175;-70
2023/07/26 04:17:17;;;;;;;5.90;3.50;;;13.10;1.00;;;;;;5031843;28;20199;-71
2023/07/26 04:19:43;;;;;;;6.40;3.50;;;13.00;1.00;;;;;;5033953;28;20172;-70
2023/07/26 04:22:09;;;;;;;5.20;3.73;;;13.00;1.00;;;;;;5033768;28;20453;-70
2023/07/26 04:24:34;;;;;;;12.33;3.57;;;13.10;1.00;;;;;;5033453;28;20616;-77
2023/07/26 04:27:00;;;;;;;7.97;3.60;;;13.20;1.00;;;;;;5031653;28;20605;-78
2023/07/26 04:29:26;;;;;;;6.07;3.83;;;13.10;1.00;;;;;;5033468;28;20955;-78
2023/07/26 04:31:51;;;;;;;14.20;3.67;;;13.20;1.00;;;;;;5032682;28;20179;-75
2023/07/26 04:34:17;;;;;;;6.70;3.97;;;13.20;1.00;;;;;;5033621;28;20258;-70
2023/07/26 04:36:43;;;;;;;4.77;3.10;;;13.20;1.00;;;;;;5032287;28;20196;-78
2023/07/26 04:39:09;;;;;;;11.63;3.67;;;13.20;1.00;;;;;;5033502;28;20877;-69
2023/07/26 04:41:35;;;;;;;10.30;2.90;;;13.30;1.00;;;;;;5015856;28;20204;-73
2023/07/26 04:44:01;;;;;;;4.10;3.37;;;13.30;1.00;;;;;;5013340;28;20172;-69
2023/07/26 04:46:26;;;;;;;6.40;2.70;;;13.30;1.00;;;;;;5012708;28;20541;-77
2023/07/26 04:48:52;;;;;;;2.97;2.73;;;13.40;1.00;;;;;;5013344;28;20423;-68
2023/07/26 04:51:18;;;;;;;4.10;2.80;;;13.40;1.00;;;;;;5013313;28;20183;-74
2023/07/26 04:53:43;;;;;;;5.20;3.17;;;13.50;1.00;;;;;;5031843;28;20171;-69
2023/07/26 04:56:09;;;;;;;11.23;3.57;;;13.60;1.00;;;;;;5031583;28;20575;-69
2023/07/26 04:58:35;;;;;;;7.13;4.57;;;13.60;1.00;;;;;;5033131;28;20187;-72
2023/07/26 05:01:01;;;;;;;4.60;3.50;;;13.60;1.00;;;;;;5033115;28;20429;-67
2023/07/26 05:03:27;;;;;;;9.70;3.43;;;13.70;1.00;;;;;;5032786;28;20207;-70
2023/07/26 05:05:52;;;;;;;5.43;2.90;;;13.70;1.00;;;;;;5030639;28;20182;-73
2023/07/26 05:08:20;;;;;;;5.17;3.60;;;13.80;1.00;;;;;;5032093;28;20602;-67
2023/07/26 05:10:50;;;;;;;7.33;3.27;;;13.80;1.00;;;;;;5033051;28;20254;-66
2023/07/26 05:13:16;;;;;;;7.90;3.37;;;13.90;1.00;;;;;;5030986;28;20416;-75
2023/07/26 05:15:42;;;;;;;5.97;3.33;;;13.90;1.00;;;;;;5030486;28;20811;-77
2023/07/26 05:18:07;;;;;;;7.20;3.00;;;13.90;1.00;;;;;;5031297;28;20757;-70
2023/07/26 05:20:33;;;;;;;4.47;2.90;;;13.90;1.00;;;;;;5032986;28;20176;-73
2023/07/26 05:22:58;;;;;;;4.63;2.40;;;13.90;1.00;;;;;;5032497;28;20175;-77
2023/07/26 05:25:24;;;;;;;7.20;3.73;;;14.00;1.00;;;;;;5030796;28;20187;-69
2023/07/26 05:27:50;;;;;;;4.13;3.57;;;14.00;1.00;;;;;;5033067;28;20663;-78
2023/07/26 05:30:19;;;;;;;3.00;2.70;;;14.00;1.00;;;;;;5033049;28;20685;-77
2023/07/26 05:32:45;;;;;;;12.73;3.37;;;14.00;1.00;;;;;;5032103;28;20225;-73
2023/07/26 05:35:14;;;;;;;8.57;3.13;;;14.10;1.00;;;;;;5031824;28;20414;-75
2023/07/26 05:37:40;;;;;;;7.20;2.80;;;14.10;1.00;;;;;;5019345;28;20472;-77
2023/07/26 05:40:06;;;;;;;3.47;3.17;;;14.20;1.00;;;;;;5030233;28;20766;-77
2023/07/26 05:42:32;;;;;;;4.50;3.00;;;14.30;1.00;;;;;;5021345;28;20200;-69
2023/07/26 05:44:58;;;;;;;5.97;2.97;;;14.30;1.00;;;;;;5029962;28;20465;-69
2023/07/26 05:47:24;;;;;;;5.20;4.70;;;14.40;1.00;;;;;;5030660;28;20528;-69
2023/07/26 05:49:50;;;;;;;4.47;2.60;;;14.40;1.00;;;;;;5031419;28;20215;-78
2023/07/26 05:52:16;;;;;;;3.23;2.80;;;14.50;1.00;;;;;;5031636;28;20489;-78
2023/07/26 05:54:41;;;;;;;7.67;3.20;;;14.50;1.00;;;;;;5032335;28;20692;-72
2023/07/26 05:57:07;;;;;;;9.10;3.77;;;14.60;1.00;;;;;;5030426;28;20516;-69
2023/07/26 05:59:33;;;;;;;2.80;2.30;;;14.60;1.00;;;;;;5031051;28;20261;-69
2023/07/26 06:01:59;;;;;;;6.47;2.83;;;14.60;1.00;;;;;;5032303;28;20241;-78
2023/07/26 06:04:25;;;;;;;6.73;2.63;;;14.70;1.00;;;;;;5032707;28;20581;-70
2023/07/26 06:06:50;;;;;;;4.47;3.00;;;14.70;1.00;;;;;;5031670;28;20188;-78
2023/07/26 06:09:17;;;;;;;8.47;3.03;;;14.80;1.00;;;;;;5031132;28;20473;-74
2023/07/26 06:11:44;;;;;;;4.43;3.20;;;14.80;1.00;;;;;;5017250;28;20180;-77
2023/07/26 06:14:09;;;;;;;4.53;2.60;;;14.80;1.00;;;;;;5012702;28;20411;-69
2023/07/26 06:16:35;;;;;;;5.37;2.93;;;14.80;1.00;;;;;;5011862;28;20423;-71
2023/07/26 06:19:01;;;;;;;6.33;3.30;;;14.80;1.00;;;;;;5012627;28;20209;-69
2023/07/26 06:21:26;;;;;;;9.80;3.20;;;14.90;1.00;;;;;;5012372;28;20207;-77
2023/07/26 06:23:52;;;;;;;11.70;2.60;;;14.90;1.00;;;;;;5012808;28;20528;-71
2023/07/26 06:26:18;;;;;;;2.97;2.67;;;14.90;1.00;;;;;;5010417;28;20177;-70
2023/07/26 06:28:44;;;;;;;3.60;2.47;;;14.90;1.00;;;;;;5013297;28;20177;-69
2023/07/26 06:31:10;;;;;;;3.90;2.03;;;15.00;1.00;;;;;;5030901;28;20422;-75
2023/07/26 06:33:36;;;;;;;5.40;2.50;;;15.00;1.00;;;;;;5016101;28;20226;-78
2023/07/26 06:36:02;;;;;;;6.03;3.03;;;15.10;1.00;;;;;;5015094;28;20422;-73
2023/07/26 06:38:28;;;;;;;4.90;2.30;;;15.10;1.00;;;;;;5015934;28;20435;-70
2023/07/26 06:40:53;;;;;;;3.87;1.93;;;15.20;1.00;;;;;;5032277;28;20210;-77
2023/07/26 06:43:19;;;;;;;3.70;2.53;;;15.20;1.00;;;;;;5035620;28;20174;-78
2023/07/26 06:45:50;;;;;;;7.07;2.30;;;15.20;1.00;;;;;;5033653;28;20210;-77
2023/07/26 06:48:16;;;;;;;5.40;2.10;;;15.40;1.00;;;;;;5035387;28;20246;-71
2023/07/26 06:50:42;;;;;;;2.90;1.87;;;15.40;99.90;;;;;;5033487;28;20830;-70
2023/07/26 06:53:08;;;;;;;4.20;1.53;;;15.40;99.90;;;;;;5035066;28;20432;-78
2023/07/26 06:55:35;;;;;;;5.13;1.90;;;15.50;99.90;;;;;;5034456;28;20402;-69
2023/07/26 06:58:01;;;;;;;6.53;2.27;;;15.60;99.90;;;;;;5034275;28;20461;-71
2023/07/26 07:00:27;;;;;;;7.07;2.30;;;15.70;99.90;;;;;;5033584;28;20410;-76
2023/07/26 07:03:00;;;;;;;3.50;1.97;;;15.80;99.90;;;;;;5035379;28;20464;-70
2023/07/26 07:05:30;;;;;;;5.27;2.30;;;15.80;99.90;;;;;;5033046;28;20171;-69
2023/07/26 07:07:56;;;;;;;2.13;2.03;;;15.90;99.90;;;;;;5034700;28;20453;-72
2023/07/26 07:10:22;;;;;;;3.67;1.90;;;16.00;99.90;;;;;;5035193;28;20406;-72
2023/07/26 07:12:49;;;;;;;4.07;2.13;;;16.10;99.90;;;;;;5034515;28;20574;-70
2023/07/26 07:15:15;;;;;;;3.77;1.73;;;16.20;99.90;;;;;;5034018;28;20468;-76
2023/07/26 07:17:41;;;;;;;6.50;2.10;;;16.20;99.90;;;;;;5029861;28;20450;-74
2023/07/26 07:20:07;;;;;;;3.80;1.90;;;16.30;99.90;;;;;;5034435;28;20659;-77
2023/07/26 07:22:33;;;;;;;1.97;1.47;;;16.30;99.90;;;;;;5034833;28;20461;-76
2023/07/26 07:24:59;;;;;;;5.03;2.07;;;16.40;99.90;;;;;;5034463;28;20480;-76
2023/07/26 07:27:25;;;;;;;3.00;2.40;;;16.50;99.90;;;;;;5033349;28;20493;-73
2023/07/26 07:29:51;;;;;;;5.17;1.80;;;16.60;99.90;;;;;;5033905;28;20881;-77
2023/07/26 07:32:18;;;;;;;3.97;1.60;;;16.60;99.90;;;;;;5034503;28;20194;-70
2023/07/26 07:34:44;;;;;;;3.07;1.80;;;16.50;99.90;;;;;;5034518;28;20937;-69
2023/07/26 07:37:10;;;;;;;4.53;1.90;;;16.50;99.90;;;;;;5033545;28;20911;-71
2023/07/26 07:39:36;;;;;;;3.90;1.73;;;16.40;99.90;;;;;;5032435;28;20502;-70
2023/07/26 07:42:02;;;;;;;3.17;1.50;;;16.30;99.90;;;;;;5034568;28;20199;-75
2023/07/26 07:44:28;;;;;;;3.20;1.50;;;16.30;99.90;;;;;;5021840;28;20473;-69
2023/07/26 07:46:54;;;;;;;6.00;1.80;;;16.40;99.90;;;;;;5013610;28;20188;-78
2023/07/26 07:49:20;;;;;;;6.33;1.97;;;16.50;99.90;;;;;;5014536;28;20458;-78
2023/07/26 07:51:45;;;;;;;3.53;1.37;;;16.70;99.90;;;;;;5014855;28;20431;-69
2023/07/26 07:54:11;;;;;;;10.03;2.03;;;16.80;99.90;;;;;;5014172;28;20219;-76
2023/07/26 07:56:38;;;;;;;4.20;1.73;;;16.90;99.90;;;;;;5024649;28;20207;-73
2023/07/26 07:59:03;;;;;;;3.17;1.50;;;17.10;99.90;;;;;;5034050;28;20182;-70
2023/07/26 08:01:30;;;;;;;3.53;1.70;;;17.20;99.90;;;;;;5033973;28;20453;-70
2023/07/26 08:03:56;;;;;;;2.40;2.20;;;17.30;99.90;;;;;;5029195;28;20618;-78
2023/07/26 08:06:22;;;;;;;3.40;1.80;;;17.40;99.90;;;;;;5033334;28;20431;-70
2023/07/26 08:08:47;;;;;;;2.53;1.70;;;17.50;99.90;;;;;;5034275;28;20449;-71
2023/07/26 08:11:13;;;;;;;3.53;2.07;;;17.40;99.90;;;;;;5033168;28;20677;-71
2023/07/26 08:13:39;;;;;;;13.03;3.20;;;17.30;99.90;;;;;;5033915;28;20247;-71
2023/07/26 08:16:04;;;;;;;4.87;2.70;;;17.00;99.90;;;;;;5033313;28;20224;-69
2023/07/26 08:18:30;;;;;;;9.40;2.40;;;16.60;99.90;;;;;;5033031;28;20200;-67
2023/07/26 08:20:56;;;;;;;6.00;2.37;;;16.10;99.90;;;;;;5033933;28;20204;-72
2023/07/26 08:23:21;;;;;;;3.33;1.87;;;15.80;99.90;;;;;;5032944;28;20172;-68
2023/07/26 08:25:47;;;;;;;3.27;1.87;;;15.50;99.90;;;;;;5033236;28;20275;-72
2023/07/26 08:28:13;;;;;;;2.83;1.83;;;15.20;99.90;;;;;;5033993;28;20194;-68
2023/07/26 08:30:39;;;;;;;5.03;2.30;;;15.00;99.90;;;;;;5033515;28;20191;-69
2023/07/26 08:33:04;;;;;;;3.97;1.93;;;14.80;1.00;;;;;;5032536;28;20184;-69
2023/07/26 08:35:30;;;;;;;3.87;1.50;;;14.70;1.00;;;;;;5032616;28;20168;-73
2023/07/26 08:37:56;;;;;;;7.00;2.10;;;14.60;1.00;;;;;;5033787;28;20723;-74
2023/07/26 08:40:22;;;;;;;2.67;1.90;;;14.50;1.00;;;;;;5033709;28;20413;-73
2023/07/26 08:42:48;;;;;;;7.93;2.57;;;14.50;1.00;;;;;;5033600;28;20207;-74
2023/07/26 08:45:14;;;;;;;3.83;2.00;;;14.50;1.00;;;;;;5032907;28;20172;-74
2023/07/26 08:47:41;;;;;;;3.90;2.87;;;14.50;1.00;;;;;;5014759;28;20458;-69
2023/07/26 08:50:07;;;;;;;5.10;2.47;;;14.50;1.00;;;;;;5014033;28;20429;-70
2023/07/26 08:52:33;;;;;;;3.03;1.67;;;14.40;1.00;;;;;;5025243;28;20398;-74
2023/07/26 08:55:00;;;;;;;2.80;1.73;;;14.40;1.00;;;;;;5033171;28;20406;-73
2023/07/26 08:57:26;;;;;;;1.53;1.43;;;14.40;1.00;;;;;;5032971;28;20431;-71
2023/07/26 08:59:52;;;;;;;2.53;1.97;;;14.60;1.00;;;;;;5032814;28;20491;-71
2023/07/26 09:02:19;;;;;;;4.50;1.53;;;14.80;1.00;;;;;;5033435;28;20454;-69
2023/07/26 09:04:48;;;;;;;3.90;1.93;;;14.90;1.00;;;;;;5031740;28;20430;-69
2023/07/26 09:07:14;;;;;;;3.30;1.90;;;15.10;1.00;;;;;;5031131;28;20449;-74
2023/07/26 09:09:40;;;;;;;2.03;1.47;;;15.30;1.00;;;;;;5033433;28;20898;-70
2023/07/26 09:12:07;;;;;;;4.10;2.47;;;15.20;1.00;;;;;;5033228;28;20406;-73
2023/07/26 09:14:34;;;;;;;4.23;1.70;;;15.20;1.00;;;;;;5033255;28;20403;-69
2023/07/26 09:17:02;;;;;;;4.77;2.60;;;15.40;1.00;;;;;;5031327;28;20571;-70
2023/07/26 09:19:33;;;;;;;4.77;2.40;;;15.60;1.00;;;;;;5031054;28;20437;-75
2023/07/26 09:22:01;;;;;;;5.40;1.87;;;16.00;1.00;;;;;;5029770;28;20962;-70
2023/07/26 09:24:29;;;;;;;1.73;1.30;;;16.20;1.00;;;;;;5012197;28;20419;-75
2023/07/26 09:27:11;;;;;;;2.13;1.90;;;16.50;1.00;;;;;;5011188;28;20805;-69
2023/07/26 09:29:40;;;;;;;2.70;1.97;;;16.50;1.00;;;;;;5013480;28;20412;-75
2023/07/26 09:32:07;;;;;;;1.70;1.53;;;16.20;1.00;;;;;;5012863;28;20418;-68
2023/07/26 09:34:33;;;;;;;2.33;1.77;;;15.80;1.00;;;;;;5032037;28;20433;-72
2023/07/26 09:36:59;;;;;;;3.50;1.80;;;15.50;1.00;;;;;;5032193;28;20430;-75
2023/07/26 09:39:28;;;;;;;4.70;1.63;;;15.40;1.00;;;;;;5032906;28;20501;-72
2023/07/26 09:42:08;;;;;;;2.63;1.70;;;15.40;1.00;;;;;;5032901;28;20460;-70
2023/07/26 09:44:36;;;;;;;3.60;1.80;;;15.40;1.00;;;;;;5033209;28;20412;-70
2023/07/26 09:47:03;;;;;;;3.33;1.57;;;15.30;1.00;;;;;;5020792;28;20510;-73
2023/07/26 09:49:31;;;;;;;2.43;2.03;;;15.30;1.00;;;;;;5031217;28;20440;-76
2023/07/26 09:52:00;;;;;;;4.60;1.87;;;15.20;1.00;;;;;;5032964;28;20662;-70
2023/07/26 09:54:27;;;;;;;3.70;2.20;;;15.20;1.00;;;;;;5033009;28;20459;-71
2023/07/26 09:56:55;;;;;;;1.90;1.70;;;15.20;1.00;;;;;;5031173;28;20517;-71
2023/07/26 09:59:22;;;;;;;2.53;1.97;;;15.30;1.00;;;;;;5032468;28;20415;-70
2023/07/26 10:01:48;;;;;;;1.97;1.67;;;15.60;1.00;;;;;;5031873;28;20462;-70
2023/07/26 10:04:22;;;;;;;2.00;1.70;;;16.20;1.00;;;;;;5036162;28;20395;-71
2023/07/26 10:06:51;;;;;;;4.70;1.67;;;16.90;1.00;;;;;;5035477;28;20194;-74
2023/07/26 10:09:17;;;;;;;4.23;1.20;;;17.60;1.00;;;;;;5036529;28;20409;-72
2023/07/26 10:11:44;;;;;;;1.63;1.50;;;18.30;1.00;;;;;;5036623;28;20414;-71
2023/07/26 10:14:13;;;;;;;2.13;1.50;;;18.90;1.00;;;;;;5036515;28;20929;-71
2023/07/26 10:16:39;;;;;;;2.63;1.40;;;19.40;1.00;;;;;;5016441;28;20450;-70
2023/07/26 10:19:08;;;;;;;2.23;1.50;;;19.80;1.00;;;;;;5016359;28;20433;-80
2023/07/26 10:21:38;;;;;;;2.00;1.60;;;20.10;1.00;;;;;;5015022;28;20482;-76
2023/07/26 10:24:04;;;;;;;3.17;1.47;;;20.40;99.90;;;;;;5016101;28;20449;-70
2023/07/26 10:26:33;;;;;;;3.23;1.57;;;20.30;99.90;;;;;;5014438;28;20418;-74
2023/07/26 10:28:59;;;;;;;3.00;1.87;;;19.80;99.90;;;;;;5016589;28;20558;-75
2023/07/26 10:31:32;;;;;;;2.43;1.60;;;19.30;99.90;;;;;;5015662;28;20421;-72
2023/07/26 10:33:58;;;;;;;4.17;1.60;;;19.30;99.90;;;;;;5016378;28;20427;-71
2023/07/26 10:36:34;;;;;;;3.00;1.40;;;19.10;99.90;;;;;;5035455;28;20829;-70
2023/07/26 10:39:05;;;;;;;4.90;1.70;;;18.80;99.90;;;;;;5036077;28;20413;-70
2023/07/26 10:41:31;;;;;;;1.37;1.27;;;18.70;99.90;;;;;;5035516;28;20450;-70
2023/07/26 10:44:04;;;;;;;4.60;1.27;;;19.00;99.90;;;;;;5036034;28;20403;-70
2023/07/26 10:46:35;;;;;;;3.93;1.77;;;19.70;99.90;;;;;;5035030;28;20402;-72
2023/07/26 10:49:16;;;;;;;2.07;1.37;;;19.20;99.90;;;;;;5018959;28;20447;-75
2023/07/26 10:52:00;;;;;;;3.27;1.63;;;18.20;99.90;;;;;;5031737;28;20418;-72
2023/07/26 10:54:37;;;;;;;3.67;1.20;;;17.20;99.90;;;;;;5036101;28;20775;-66
2023/07/26 10:57:31;;;;;;;2.70;1.33;;;16.60;99.90;;;;;;5034509;28;20440;-68
2023/07/26 11:00:01;;;;;;;2.30;1.27;;;16.20;99.90;;;;;;5034788;28;20516;-73
2023/07/26 11:02:44;;;;;;;2.30;1.00;;;15.60;99.90;;;;;;5034151;28;20551;-66
2023/07/26 11:05:11;;;;;;;1.60;1.47;;;15.60;1.00;;;;;;5035078;28;20794;-67
2023/07/26 11:08:01;;;;;;;1.97;1.73;;;16.00;1.00;;;;;;5035689;28;20899;-72
2023/07/26 11:10:38;;;;;;;1.97;1.20;;;16.90;1.00;;;;;;5035141;28;20406;-67
2023/07/26 11:13:07;;;;;;;2.40;1.13;;;17.90;1.00;;;;;;5035456;28;20476;-72
2023/07/26 11:15:35;;;;;;;3.47;1.63;;;18.80;1.00;;;;;;5032537;28;20434;-73
2023/07/26 11:18:01;;;;;;;3.87;1.57;;;19.40;1.00;;;;;;5034559;28;20411;-73
2023/07/26 11:20:27;;;;;;;2.47;1.50;;;20.10;1.00;;;;;;5035345;28;20476;-72
2023/07/26 11:22:53;;;;;;;3.20;1.23;;;20.80;1.00;;;;;;5035374;28;20957;-67
2023/07/26 11:25:20;;;;;;;1.77;1.10;;;21.10;1.00;;;;;;5034661;28;20457;-71
2023/07/26 11:27:47;;;;;;;1.13;0.87;;;21.50;1.00;;;;;;5034964;28;20418;-69
2023/07/26 11:30:18;;;;;;;2.37;1.27;;;21.90;1.00;;;;;;5034493;28;20405;-69
2023/07/26 11:32:48;;;;;;;1.40;1.00;;;22.30;1.00;;;;;;5034394;28;20438;-67
2023/07/26 11:35:17;;;;;;;6.93;1.80;;;21.80;99.90;;;;;;5034273;28;20417;-71
2023/07/26 11:37:55;;;;;;;4.20;1.40;;;21.10;99.90;;;;;;5035039;28;20426;-69
2023/07/26 11:40:21;;;;;;;3.10;1.20;;;19.70;99.90;;;;;;5034774;28;20905;-67
2023/07/26 11:42:49;;;;;;;1.80;1.30;;;17.60;99.90;;;;;;5035071;28;20454;-69
2023/07/26 11:45:15;;;;;;;1.20;1.10;;;16.50;99.90;;;;;;5033574;28;20439;-72
2023/07/26 11:47:41;;;;;;;2.97;1.30;;;15.90;99.90;;;;;;5031117;28;20446;-73
2023/07/26 11:50:07;;;;;;;2.43;1.70;;;15.40;99.90;;;;;;5016527;28;20484;-74
2023/07/26 11:52:33;;;;;;;8.23;1.10;;;15.20;1.00;;;;;;5014967;28;20183;-68
2023/07/26 11:55:04;;;;;;;2.23;1.60;;;14.90;1.00;;;;;;5014646;28;20411;-68
2023/07/26 11:57:30;;;;;;;1.50;1.40;;;14.80;1.00;;;;;;5016745;28;20806;-73
2023/07/26 12:00:00;;;;;;;1.97;1.37;;;14.90;1.00;;;;;;5033903;28;20449;-74
2023/07/26 12:02:26;;;;;;;2.53;2.10;;;15.10;1.00;;;;;;5034359;28;20453;-72
2023/07/26 12:05:20;;;;;;;2.40;1.70;;;15.00;1.00;;;;;;5033685;28;20390;-67
2023/07/26 12:07:50;;;;;;;2.77;1.50;;;15.00;1.00;;;;;;5033472;28;20959;-70
2023/07/26 12:10:34;;;;;;;2.40;1.70;;;14.80;1.00;;;;;;5034293;28;20410;-71
2023/07/26 12:13:03;;;;;;;6.07;2.33;;;14.80;1.00;;;;;;5034338;28;20398;-69
2023/07/26 12:15:29;;;;;;;2.20;1.80;;;14.80;1.00;;;;;;5032491;28;20422;-68
2023/07/26 12:18:02;;;;;;;2.87;1.47;;;14.90;1.00;;;;;;5034431;28;20464;-67
2023/07/26 12:20:29;;;;;;;2.43;2.10;;;15.40;1.00;;;;;;5034127;28;20172;-68
2023/07/26 12:22:58;;;;;;;2.70;1.60;;;15.50;1.00;;;;;;5033513;28;20452;-71
2023/07/26 12:25:38;;;;;;;2.10;1.90;;;15.50;1.00;;;;;;5032730;28;20798;-71
2023/07/26 12:28:07;;;;;;;3.17;1.30;;;15.50;1.00;;;;;;5033934;28;20426;-72
2023/07/26 12:30:34;;;;;;;3.57;1.87;;;15.80;1.00;;;;;;5033425;28;20456;-69
2023/07/26 12:33:11;;;;;;;4.93;1.70;;;16.90;9.30;;;;;;5013991;28;20419;-71
2023/07/26 12:35:38;;;;;;;4.17;2.07;;;17.90;1.00;;;;;;5012041;28;20442;-72
2023/07/26 12:38:17;;;;;;;11.33;2.23;;;18.40;1.00;;;;;;5013820;28;20928;-68
2023/07/26 12:40:44;;;;;;;3.30;1.77;;;18.10;1.00;;;;;;5017049;28;20942;-69
2023/07/26 12:43:30;;;;;;;3.30;1.70;;;17.70;1.00;;;;;;5033074;28;20828;-71
2023/07/26 12:45:57;;;;;;;1.90;1.70;;;18.00;1.00;;;;;;5032332;28;20425;-69
2023/07/26 12:48:24;;;;;;;3.27;1.50;;;18.40;1.00;;;;;;5032445;28;20426;-68
2023/07/26 12:50:52;;;;;;;1.87;1.40;;;18.20;1.00;;;;;;5033469;28;20426;-70
2023/07/26 12:53:24;;;;;;;2.60;1.90;;;17.90;1.00;;;;;;5033587;28;20406;-67
2023/07/26 12:55:51;;;;;;;3.50;1.57;;;17.50;1.00;;;;;;5032967;28;20418;-67